createdAt,value
2018-04-19T00:00:44.505Z,14.43
2018-04-19T00:03:14.218Z,13.83
2018-04-19T00:05:44.845Z,13.93
2018-04-19T00:08:14.804Z,12.73
2018-04-19T00:10:45.238Z,13.73
2018-04-19T00:13:16.443Z,13.60
2018-04-19T00:15:46.701Z,13.83
2018-04-19T00:18:17.228Z,13.53
2018-04-19T00:20:48.162Z,12.90
2018-04-19T00:23:18.363Z,12.97
2018-04-19T00:25:49.008Z,13.37
2018-04-19T00:28:18.826Z,12.23
2018-04-19T00:30:49.216Z,12.50
2018-04-19T00:33:19.605Z,11.70
2018-04-19T00:35:50.639Z,12.37
2018-04-19T00:38:21.169Z,12.23
2018-04-19T00:40:51.629Z,11.80
2018-04-19T00:43:22.488Z,11.63
2018-04-19T00:45:53.210Z,12.00
2018-04-19T00:48:23.620Z,12.30
2018-04-19T00:50:53.984Z,12.20
2018-04-19T00:53:24.111Z,12.23
2018-04-19T00:55:54.505Z,11.93
2018-04-19T00:58:25.116Z,11.60
2018-04-19T01:00:55.829Z,12.50
2018-04-19T01:03:26.228Z,13.27
2018-04-19T01:05:56.654Z,12.77
2018-04-19T01:08:27.274Z,12.63
2018-04-19T01:10:58.121Z,12.10
2018-04-19T01:13:28.540Z,13.10
2018-04-19T01:15:58.677Z,11.73
2018-04-19T01:18:29.493Z,12.60
2018-04-19T01:21:00.232Z,12.73
2018-04-19T01:23:29.955Z,13.13
2018-04-19T01:26:00.579Z,12.30
2018-04-19T01:28:31.107Z,13.37
2018-04-19T01:31:01.735Z,12.17
2018-04-19T01:33:32.380Z,12.40
2018-04-19T01:36:14.057Z,12.93
2018-04-19T01:38:44.598Z,12.23
2018-04-19T01:41:14.557Z,12.50
2018-04-19T01:43:45.037Z,12.57
2018-04-19T01:46:15.774Z,12.57
2018-04-19T01:48:46.757Z,12.17
2018-04-19T01:51:17.644Z,12.60
2018-04-19T01:53:48.257Z,12.17
2018-04-19T01:56:18.500Z,12.40
2018-04-19T01:58:49.136Z,11.87
2018-04-19T02:01:19.047Z,12.30
2018-04-19T02:03:49.801Z,12.43
2018-04-19T02:06:20.694Z,12.00
2018-04-19T02:08:51.060Z,11.83
2018-04-19T02:11:21.460Z,12.17
2018-04-19T02:13:51.392Z,11.70
2018-04-19T02:16:21.880Z,12.13
2018-04-19T02:18:52.506Z,12.53
2018-04-19T02:21:22.838Z,12.07
2018-04-19T02:23:53.410Z,12.23
2018-04-19T02:26:23.635Z,12.33
2018-04-19T02:28:54.345Z,13.07
2018-04-19T02:31:24.377Z,13.00
2018-04-19T02:33:54.972Z,13.13
2018-04-19T02:36:25.393Z,15.70
2018-04-19T02:38:56.028Z,18.43
2018-04-19T02:41:26.553Z,16.43
2018-04-19T02:43:57.103Z,15.10
2018-04-19T02:46:27.042Z,16.00
2018-04-19T02:48:58.769Z,14.77
2018-04-19T02:51:29.196Z,13.87
2018-04-19T02:54:00.071Z,12.87
2018-04-19T02:56:30.457Z,12.70
2018-04-19T02:59:01.500Z,14.33
2018-04-19T03:01:32.083Z,13.97
2018-04-19T03:04:02.696Z,13.30
2018-04-19T03:06:33.800Z,13.67
2018-04-19T03:09:03.763Z,12.90
2018-04-19T03:11:34.378Z,13.40
2018-04-19T03:14:04.943Z,13.57
2018-04-19T03:16:35.423Z,13.73
2018-04-19T03:19:06.198Z,13.13
2018-04-19T03:21:36.756Z,12.87
2018-04-19T03:24:07.213Z,12.83
2018-04-19T03:26:37.161Z,13.67
2018-04-19T03:29:07.699Z,13.37
2018-04-19T03:31:38.102Z,13.97
2018-04-19T03:34:09.853Z,13.93
2018-04-19T03:36:40.423Z,13.10
2018-04-19T03:39:11.130Z,13.03
2018-04-19T03:41:41.564Z,14.07
2018-04-19T03:44:11.841Z,14.50
2018-04-19T03:46:42.011Z,15.10
2018-04-19T03:49:12.825Z,14.07
2018-04-19T03:51:43.344Z,16.10
2018-04-19T03:54:13.678Z,14.20
2018-04-19T03:56:43.629Z,13.33
2018-04-19T03:59:14.083Z,14.00
2018-04-19T04:01:44.556Z,14.67
2018-04-19T04:04:14.963Z,21.77
2018-04-19T04:06:45.480Z,17.20
2018-04-19T04:09:16.994Z,16.90
2018-04-19T04:11:47.802Z,13.77
2018-04-19T04:14:18.525Z,12.60
2018-04-19T04:17:00.251Z,13.03
2018-04-19T04:19:42.049Z,12.90
2018-04-19T04:22:23.835Z,13.03
2018-04-19T04:24:53.650Z,12.20
2018-04-19T04:27:23.468Z,12.27
2018-04-19T04:29:53.297Z,13.03
2018-04-19T04:32:23.204Z,12.43
2018-04-19T04:34:53.001Z,13.73
2018-04-19T04:37:22.774Z,12.37
2018-04-19T04:39:52.746Z,12.27
2018-04-19T04:42:22.650Z,12.33
2018-04-19T04:44:52.458Z,13.03
2018-04-19T04:47:22.375Z,13.27
2018-04-19T04:49:52.393Z,12.57
2018-04-19T04:52:22.311Z,11.70
2018-04-19T04:54:52.113Z,12.00
2018-04-19T04:57:22.039Z,12.73
2018-04-19T04:59:51.957Z,13.20
2018-04-19T05:02:21.867Z,11.93
2018-04-19T05:04:51.685Z,12.77
2018-04-19T05:07:21.589Z,12.43
2018-04-19T05:09:51.415Z,13.43
2018-04-19T05:12:21.218Z,12.53
2018-04-19T05:14:51.034Z,13.63
2018-04-19T05:17:20.838Z,14.17
2018-04-19T05:19:50.657Z,14.37
2018-04-19T05:22:20.471Z,14.50
2018-04-19T05:24:50.484Z,14.93
2018-04-19T05:27:21.117Z,14.47
2018-04-19T05:29:51.032Z,13.83
2018-04-19T05:32:20.851Z,14.50
2018-04-19T05:34:50.765Z,13.27
2018-04-19T05:37:21.385Z,13.60
2018-04-19T05:39:51.206Z,13.80
2018-04-19T05:42:21.023Z,13.80
2018-04-19T05:44:50.840Z,13.37
2018-04-19T05:47:20.658Z,14.40
2018-04-19T05:49:50.461Z,13.43
2018-04-19T05:52:20.457Z,14.30
2018-04-19T05:54:50.392Z,14.33
2018-04-19T05:57:20.200Z,14.67
2018-04-19T05:59:50.020Z,13.90
2018-04-19T06:02:19.825Z,13.67
2018-04-19T06:04:49.646Z,13.67
2018-04-19T06:07:19.546Z,13.90
2018-04-19T06:09:49.369Z,14.47
2018-04-19T06:12:19.291Z,15.20
2018-04-19T06:14:49.107Z,15.33
2018-04-19T06:17:19.010Z,14.67
2018-04-19T06:19:48.906Z,13.97
2018-04-19T06:22:18.743Z,14.37
2018-04-19T06:24:48.553Z,14.90
2018-04-19T06:27:18.468Z,14.03
2018-04-19T06:29:48.484Z,13.47
2018-04-19T06:32:18.399Z,14.37
2018-04-19T06:34:48.219Z,14.07
2018-04-19T06:37:18.028Z,14.33
2018-04-19T06:39:47.846Z,13.53
2018-04-19T06:42:17.660Z,13.73
2018-04-19T06:44:47.467Z,13.60
2018-04-19T06:47:17.384Z,12.97
2018-04-19T06:49:47.181Z,13.83
2018-04-19T06:52:17.010Z,13.20
2018-04-19T06:54:46.832Z,13.90
2018-04-19T06:57:16.629Z,11.80
2018-04-19T06:59:46.561Z,13.77
2018-04-19T07:02:16.356Z,13.20
2018-04-19T07:04:46.285Z,13.23
2018-04-19T07:07:16.087Z,12.53
2018-04-19T07:09:46.021Z,13.13
2018-04-19T07:12:16.020Z,13.43
2018-04-19T07:14:45.965Z,13.67
2018-04-19T07:17:15.964Z,12.17
2018-04-19T07:19:45.877Z,12.30
2018-04-19T07:22:15.796Z,12.63
2018-04-19T07:24:45.599Z,11.80
2018-04-19T07:27:15.514Z,12.00
2018-04-19T07:29:45.441Z,11.20
2018-04-19T07:32:15.399Z,10.10
2018-04-19T07:34:45.157Z,10.57
2018-04-19T07:37:15.071Z,11.67
2018-04-19T07:39:44.879Z,11.67
2018-04-19T07:42:14.660Z,11.03
2018-04-19T07:44:44.522Z,12.30
2018-04-19T07:47:14.325Z,10.60
2018-04-19T07:49:44.241Z,11.33
2018-04-19T07:52:14.255Z,10.93
2018-04-19T07:54:44.071Z,11.57
2018-04-19T07:57:13.899Z,10.03
2018-04-19T07:59:43.798Z,9.90
2018-04-19T08:02:13.718Z,10.37
2018-04-19T08:04:43.535Z,9.90
2018-04-19T08:07:13.449Z,10.33
2018-04-19T08:09:43.259Z,12.73
2018-04-19T08:12:13.183Z,10.60
2018-04-19T08:14:43.095Z,9.50
2018-04-19T08:17:12.997Z,10.60
2018-04-19T08:19:42.817Z,10.53
2018-04-19T08:22:12.725Z,10.10
2018-04-19T08:24:42.539Z,9.40
2018-04-19T08:27:12.353Z,9.80
2018-04-19T08:29:42.170Z,10.80
2018-04-19T08:32:11.978Z,9.13
2018-04-19T08:34:41.796Z,10.43
2018-04-19T08:37:11.601Z,9.90
2018-04-19T08:39:41.377Z,8.83
2018-04-19T08:42:11.231Z,9.77
2018-04-19T08:44:41.046Z,9.03
2018-04-19T08:47:10.814Z,9.63
2018-04-19T08:49:40.667Z,10.00
2018-04-19T08:52:10.551Z,9.97
2018-04-19T08:54:40.398Z,9.13
2018-04-19T08:57:10.222Z,9.93
2018-04-19T08:59:40.131Z,11.13
2018-04-19T09:02:10.040Z,11.17
2018-04-19T09:04:39.957Z,12.63
2018-04-19T09:07:09.779Z,10.60
2018-04-19T09:09:39.579Z,11.43
2018-04-19T09:12:09.393Z,11.07
2018-04-19T09:14:39.213Z,11.47
2018-04-19T09:17:09.133Z,10.83
2018-04-19T09:19:38.942Z,11.57
2018-04-19T09:22:08.754Z,12.50
2018-04-19T09:24:38.667Z,12.43
2018-04-19T09:27:08.475Z,12.13
2018-04-19T09:29:38.362Z,10.37
2018-04-19T09:32:08.211Z,11.37
2018-04-19T09:34:38.104Z,11.40
2018-04-19T09:37:08.192Z,12.03
2018-04-19T09:39:38.053Z,8.40
2018-04-19T09:42:07.845Z,10.33
2018-04-19T09:44:37.780Z,11.17
2018-04-19T09:47:07.572Z,11.60
2018-04-19T09:49:37.417Z,11.07
2018-04-19T09:52:07.423Z,10.80
2018-04-19T09:54:37.234Z,11.10
2018-04-19T09:57:07.051Z,9.03
2018-04-19T09:59:36.866Z,11.10
2018-04-19T10:02:06.778Z,11.00
2018-04-19T10:04:36.690Z,10.97
2018-04-19T10:07:06.509Z,10.00
2018-04-19T10:09:36.422Z,10.63
2018-04-19T10:12:06.347Z,11.20
2018-04-19T10:14:36.151Z,10.77
2018-04-19T10:17:05.983Z,11.37
2018-04-19T10:19:37.424Z,11.40
2018-04-19T10:22:07.205Z,10.77
2018-04-19T10:24:37.040Z,10.37
2018-04-19T10:27:06.854Z,10.80
2018-04-19T10:29:36.771Z,11.63
2018-04-19T10:32:06.583Z,10.07
2018-04-19T10:34:36.398Z,9.90
2018-04-19T10:37:06.214Z,9.90
2018-04-19T10:39:36.236Z,10.10
2018-04-19T10:42:06.141Z,9.77
2018-04-19T10:44:35.951Z,9.77
2018-04-19T10:47:05.911Z,10.13
2018-04-19T10:49:35.683Z,10.47
2018-04-19T10:52:05.571Z,9.43
2018-04-19T10:54:35.417Z,12.17
2018-04-19T10:57:05.327Z,10.13
2018-04-19T10:59:35.213Z,9.67
2018-04-19T11:02:05.157Z,10.03
2018-04-19T11:04:34.975Z,10.03
2018-04-19T11:07:04.805Z,11.43
2018-04-19T11:09:34.705Z,10.00
2018-04-19T11:12:04.514Z,10.13
2018-04-19T11:14:34.327Z,9.53
2018-04-19T11:17:04.121Z,10.30
2018-04-19T11:19:33.962Z,10.50
2018-04-19T11:22:03.871Z,10.37
2018-04-19T11:24:33.686Z,9.77
2018-04-19T11:27:03.589Z,10.17
2018-04-19T11:29:33.408Z,10.10
2018-04-19T11:32:03.221Z,10.13
2018-04-19T11:34:33.031Z,10.27
2018-04-19T11:37:02.843Z,9.53
2018-04-19T11:39:32.761Z,9.97
2018-04-19T11:42:02.842Z,10.07
2018-04-19T11:44:32.703Z,9.60
2018-04-19T11:47:02.512Z,12.10
2018-04-19T11:49:32.423Z,9.27
2018-04-19T11:52:03.271Z,10.23
2018-04-19T11:54:33.174Z,9.30
2018-04-19T11:57:03.100Z,10.10
2018-04-19T11:59:33.012Z,8.93
2018-04-19T12:02:02.917Z,9.70
2018-04-19T12:04:32.733Z,9.37
2018-04-19T12:07:02.650Z,8.70
2018-04-19T12:09:32.467Z,8.90
2018-04-19T12:12:02.192Z,9.60
2018-04-19T12:14:31.990Z,9.70
2018-04-19T12:17:01.899Z,9.40
2018-04-19T12:19:31.717Z,9.33
2018-04-19T12:22:01.533Z,9.73
2018-04-19T12:24:31.391Z,9.37
2018-04-19T12:27:01.158Z,9.30
2018-04-19T12:29:31.075Z,9.00
2018-04-19T12:32:00.980Z,8.70
2018-04-19T12:34:30.901Z,8.83
2018-04-19T12:37:00.711Z,9.83
2018-04-19T12:39:30.628Z,9.37
2018-04-19T12:42:00.449Z,9.00
2018-04-19T12:44:30.249Z,9.17
2018-04-19T12:47:00.064Z,9.23
2018-04-19T12:49:29.882Z,9.20
2018-04-19T12:51:59.800Z,9.13
2018-04-19T12:54:29.612Z,9.07
2018-04-19T12:56:59.430Z,9.03
2018-04-19T12:59:29.246Z,8.83
2018-04-19T13:01:59.049Z,8.10
2018-04-19T13:04:28.974Z,8.53
2018-04-19T13:06:58.737Z,8.80
2018-04-19T13:09:28.588Z,8.73
2018-04-19T13:11:58.687Z,9.17
2018-04-19T13:14:28.628Z,8.13
2018-04-19T13:16:58.536Z,8.60
2018-04-19T13:19:28.361Z,9.07
2018-04-19T13:21:58.167Z,8.03
2018-04-19T13:24:28.091Z,7.90
2018-04-19T13:26:58.000Z,7.97
2018-04-19T13:29:27.817Z,8.43
2018-04-19T13:31:57.725Z,7.50
2018-04-19T13:34:27.540Z,8.30
2018-04-19T13:36:57.361Z,8.43
2018-04-19T13:39:27.266Z,8.30
2018-04-19T13:41:57.178Z,7.67
2018-04-19T13:44:26.997Z,7.80
2018-04-19T13:46:56.809Z,9.70
2018-04-19T13:49:26.691Z,10.17
2018-04-19T13:51:56.437Z,10.73
2018-04-19T13:54:26.459Z,11.60
2018-04-19T13:56:56.261Z,9.63
2018-04-19T13:59:26.052Z,9.97
2018-04-19T14:01:55.792Z,9.13
2018-04-19T14:04:25.603Z,10.00
2018-04-19T14:06:55.516Z,9.60
2018-04-19T14:09:25.327Z,9.23
2018-04-19T14:11:55.144Z,9.87
2018-04-19T14:14:24.968Z,10.80
2018-04-19T14:16:54.874Z,12.07
2018-04-19T14:19:24.684Z,9.60
2018-04-19T14:21:54.498Z,11.63
2018-04-19T14:24:24.418Z,10.53
2018-04-19T14:26:54.227Z,9.30
2018-04-19T14:29:24.040Z,9.57
2018-04-19T14:31:53.867Z,9.00
2018-04-19T14:34:23.664Z,9.30
2018-04-19T14:36:53.583Z,9.57
2018-04-19T14:39:26.703Z,9.70
2018-04-19T14:42:04.876Z,8.97
2018-04-19T14:44:34.703Z,8.93
2018-04-19T14:47:04.480Z,9.20
2018-04-19T14:49:34.315Z,9.20
2018-04-19T14:52:04.137Z,9.00
2018-04-19T14:54:34.048Z,9.10
2018-04-19T14:57:03.857Z,8.93
2018-04-19T14:59:33.671Z,9.47
2018-04-19T15:02:03.487Z,9.17
2018-04-19T15:04:33.301Z,8.40
2018-04-19T15:07:03.186Z,8.67
2018-04-19T15:09:33.032Z,8.30
2018-04-19T15:12:02.840Z,9.37
2018-04-19T15:14:32.657Z,9.60
2018-04-19T15:17:02.482Z,8.53
2018-04-19T15:19:32.278Z,9.90
2018-04-19T15:22:02.097Z,8.20
2018-04-19T15:24:31.916Z,8.13
2018-04-19T15:27:01.721Z,8.20
2018-04-19T15:29:31.532Z,7.90
2018-04-19T15:32:01.321Z,10.87
2018-04-19T15:34:31.153Z,9.30
2018-04-19T15:37:00.981Z,13.77
2018-04-19T15:39:30.787Z,8.57
2018-04-19T15:42:00.605Z,9.43
2018-04-19T15:44:30.382Z,9.13
2018-04-19T15:47:01.044Z,8.17
2018-04-19T15:49:30.955Z,9.00
2018-04-19T15:52:00.766Z,19.40
2018-04-19T15:54:30.743Z,8.10
2018-04-19T15:57:00.606Z,7.87
2018-04-19T15:59:30.410Z,8.33
2018-04-19T16:02:00.274Z,10.70
2018-04-19T16:04:30.151Z,8.20
2018-04-19T16:06:59.955Z,9.20
2018-04-19T16:09:29.774Z,8.23
2018-04-19T16:11:59.743Z,12.10
2018-04-19T16:14:29.609Z,9.30
2018-04-19T16:16:59.415Z,10.43
2018-04-19T16:19:29.230Z,12.53
2018-04-19T16:21:59.042Z,18.17
2018-04-19T16:24:28.880Z,8.90
2018-04-19T16:26:58.819Z,18.67
2018-04-19T16:29:28.628Z,14.27
2018-04-19T16:31:58.507Z,15.53
2018-04-19T16:34:30.761Z,18.30
2018-04-19T16:37:00.526Z,16.97
2018-04-19T16:39:30.285Z,9.37
2018-04-19T16:42:00.255Z,9.07
2018-04-19T16:44:30.121Z,8.93
2018-04-19T16:46:59.931Z,8.90
2018-04-19T16:49:29.748Z,10.00
2018-04-19T16:51:59.515Z,13.07
2018-04-19T16:54:29.368Z,11.37
2018-04-19T16:56:59.185Z,17.90
2018-04-19T16:59:28.999Z,11.73
2018-04-19T17:01:58.918Z,9.73
2018-04-19T17:04:28.830Z,10.13
2018-04-19T17:06:58.644Z,9.27
2018-04-19T17:09:28.452Z,8.60
2018-04-19T17:11:58.364Z,9.67
2018-04-19T17:14:28.177Z,9.63
2018-04-19T17:16:58.099Z,8.57
2018-04-19T17:19:27.917Z,10.43
2018-04-19T17:21:57.687Z,9.23
2018-04-19T17:24:27.538Z,8.83
2018-04-19T17:26:57.350Z,8.97
2018-04-19T17:29:27.289Z,9.13
2018-04-19T17:31:57.079Z,9.70
2018-04-19T17:34:26.889Z,9.13
2018-04-19T17:36:56.605Z,9.40
2018-04-19T17:39:26.412Z,9.17
2018-04-19T17:41:56.225Z,9.33
2018-04-19T17:44:26.048Z,9.50
2018-04-19T17:46:55.850Z,9.90
2018-04-19T17:49:25.684Z,9.50
2018-04-19T17:51:55.519Z,11.10
2018-04-19T17:54:25.292Z,10.40
2018-04-19T17:56:55.108Z,11.97
2018-04-19T17:59:25.027Z,10.67
2018-04-19T18:01:54.843Z,11.17
2018-04-19T18:04:24.751Z,10.60
2018-04-19T18:06:54.558Z,11.43
2018-04-19T18:09:24.328Z,11.83
2018-04-19T18:11:54.189Z,11.40
2018-04-19T18:14:24.105Z,11.57
2018-04-19T18:16:53.938Z,11.20
2018-04-19T18:19:23.738Z,11.50
2018-04-19T18:21:53.538Z,10.93
2018-04-19T18:24:23.352Z,11.50
2018-04-19T18:26:53.168Z,11.67
2018-04-19T18:29:23.797Z,12.37
2018-04-19T18:31:53.931Z,12.10
2018-04-19T18:34:23.740Z,12.63
2018-04-19T18:36:53.576Z,13.70
2018-04-19T18:39:23.465Z,13.03
2018-04-19T18:41:56.417Z,13.03
2018-04-19T18:44:26.261Z,13.10
2018-04-19T18:46:56.078Z,13.70
2018-04-19T18:49:25.886Z,12.90
2018-04-19T18:51:55.811Z,12.23
2018-04-19T18:54:25.632Z,13.83
2018-04-19T18:56:55.433Z,12.50
2018-04-19T18:59:25.253Z,12.07
2018-04-19T19:01:54.977Z,12.37
2018-04-19T19:04:24.774Z,12.90
2018-04-19T19:06:54.647Z,13.27
2018-04-19T19:09:24.506Z,12.43
2018-04-19T19:11:54.325Z,12.63
2018-04-19T19:14:24.227Z,12.37
2018-04-19T19:16:54.037Z,13.33
2018-04-19T19:19:35.626Z,13.97
2018-04-19T19:22:05.443Z,13.80
2018-04-19T19:24:35.459Z,13.67
2018-04-19T19:27:05.270Z,14.40
2018-04-19T19:29:35.085Z,14.07
2018-04-19T19:32:04.893Z,14.27
2018-04-19T19:34:34.712Z,14.17
2018-04-19T19:37:04.521Z,13.80
2018-04-19T19:39:34.346Z,14.20
2018-04-19T19:42:04.249Z,13.87
2018-04-19T19:44:34.684Z,13.40
2018-04-19T19:47:04.603Z,15.13
2018-04-19T19:49:34.409Z,15.60
2018-04-19T19:52:04.316Z,15.77
2018-04-19T19:54:34.131Z,14.90
2018-04-19T19:57:03.943Z,14.63
2018-04-19T19:59:33.868Z,14.73
2018-04-19T20:02:03.680Z,14.23
2018-04-19T20:04:34.086Z,14.30
2018-04-19T20:07:04.522Z,14.67
2018-04-19T20:09:35.353Z,15.93
2018-04-19T20:12:06.016Z,14.63
2018-04-19T20:14:35.889Z,15.47
2018-04-19T20:17:06.042Z,17.30
2018-04-19T20:19:36.436Z,17.07
2018-04-19T20:22:07.151Z,16.87
2018-04-19T20:24:37.621Z,17.30
2018-04-19T20:27:08.796Z,17.57
2018-04-19T20:29:39.191Z,16.93
2018-04-19T20:32:09.937Z,18.03
2018-04-19T20:34:40.741Z,18.50
2018-04-19T20:37:11.525Z,19.47
2018-04-19T20:39:42.297Z,19.17
2018-04-19T20:42:12.661Z,17.50
2018-04-19T20:44:43.351Z,15.53
2018-04-19T20:47:13.738Z,17.80
2018-04-19T20:49:44.392Z,16.87
2018-04-19T20:52:14.685Z,15.13
2018-04-19T20:54:45.535Z,17.50
2018-04-19T20:57:16.372Z,14.77
2018-04-19T20:59:47.099Z,16.97
2018-04-19T21:02:18.190Z,14.47
2018-04-19T21:04:48.471Z,13.10
2018-04-19T21:07:18.911Z,13.20
2018-04-19T21:09:49.676Z,13.27
2018-04-19T21:12:20.477Z,12.57
2018-04-19T21:14:51.411Z,13.20
2018-04-19T21:17:22.421Z,12.37
2018-04-19T21:19:52.845Z,13.07
2018-04-19T21:22:24.117Z,12.37
2018-04-19T21:24:54.904Z,13.77
2018-04-19T21:27:25.667Z,13.40
2018-04-19T21:29:56.008Z,13.30
2018-04-19T21:32:26.488Z,13.00
2018-04-19T21:34:57.174Z,13.40
2018-04-19T21:37:28.267Z,11.23
2018-04-19T21:39:58.734Z,12.60
2018-04-19T21:42:29.209Z,12.47
2018-04-19T21:45:00.280Z,12.43
2018-04-19T21:47:30.319Z,13.07
2018-04-19T21:50:01.153Z,11.47
2018-04-19T21:52:31.463Z,12.93
2018-04-19T21:55:02.207Z,12.90
2018-04-19T21:57:33.040Z,13.07
2018-04-19T22:00:03.567Z,13.07
2018-04-19T22:02:33.787Z,13.17
2018-04-19T22:05:04.239Z,12.63
2018-04-19T22:07:34.764Z,13.70
2018-04-19T22:10:05.901Z,13.03
2018-04-19T22:12:36.423Z,12.97
2018-04-19T22:15:06.629Z,13.20
2018-04-19T22:17:37.001Z,12.57
2018-04-19T22:20:07.726Z,12.20
2018-04-19T22:22:38.170Z,12.33
2018-04-19T22:25:08.711Z,11.60
2018-04-19T22:27:39.535Z,12.07
2018-04-19T22:30:09.740Z,12.23
2018-04-19T22:32:40.103Z,11.63
2018-04-19T22:35:10.574Z,10.90
2018-04-19T22:37:40.825Z,11.87
2018-04-19T22:40:11.465Z,10.70
2018-04-19T22:42:42.019Z,10.83
2018-04-19T22:45:12.784Z,11.27
2018-04-19T22:47:42.840Z,11.97
2018-04-19T22:50:13.824Z,11.37
2018-04-19T22:52:44.204Z,10.10
2018-04-19T22:55:14.900Z,11.40
2018-04-19T22:57:45.441Z,10.77
2018-04-19T23:00:15.569Z,10.87
2018-04-19T23:02:45.935Z,11.23
2018-04-19T23:05:16.634Z,11.40
2018-04-19T23:07:46.979Z,11.53
2018-04-19T23:10:17.607Z,11.07
2018-04-19T23:12:47.911Z,10.77
2018-04-19T23:15:18.424Z,11.30
2018-04-19T23:17:48.759Z,10.50
2018-04-19T23:20:19.507Z,11.40
2018-04-19T23:22:50.051Z,12.30
2018-04-19T23:25:20.969Z,12.17
2018-04-19T23:27:52.752Z,11.50
2018-04-19T23:30:23.070Z,12.50
2018-04-19T23:32:53.612Z,12.00
2018-04-19T23:35:24.156Z,11.00
2018-04-19T23:37:54.616Z,9.57
2018-04-19T23:40:25.291Z,9.77
2018-04-19T23:42:55.711Z,9.43
2018-04-19T23:45:25.742Z,7.87
2018-04-19T23:47:56.433Z,8.07
2018-04-19T23:50:27.222Z,7.93
2018-04-19T23:52:58.342Z,8.27
2018-04-19T23:55:28.646Z,8.43
2018-04-19T23:57:59.268Z,8.50
